sensor_id;sensor_type;location;lat;lon;timestamp;P1;durP1;ratioP1;P2;durP2;ratioP2
74593;SDS011;63097;51.872;4.460;2023-04-25T00:01:36;22.63;;;3.40;;
74593;SDS011;63097;51.872;4.460;2023-04-25T00:04:01;22.00;;;3.83;;
74593;SDS011;63097;51.872;4.460;2023-04-25T00:06:27;17.30;;;3.55;;
74593;SDS011;63097;51.872;4.460;2023-04-25T00:08:53;20.42;;;3.60;;
74593;SDS011;63097;51.872;4.460;2023-04-25T00:11:18;20.83;;;3.10;;
74593;SDS011;63097;51.872;4.460;2023-04-25T00:13:43;17.52;;;2.83;;
74593;SDS011;63097;51.872;4.460;2023-04-25T00:16:09;21.35;;;3.85;;
74593;SDS011;63097;51.872;4.460;2023-04-25T00:18:34;21.20;;;3.65;;
74593;SDS011;63097;51.872;4.460;2023-04-25T00:20:59;27.10;;;3.03;;
74593;SDS011;63097;51.872;4.460;2023-04-25T00:23:25;23.02;;;3.72;;
74593;SDS011;63097;51.872;4.460;2023-04-25T00:25:50;18.90;;;2.85;;
74593;SDS011;63097;51.872;4.460;2023-04-25T00:28:16;20.80;;;2.80;;
74593;SDS011;63097;51.872;4.460;2023-04-25T00:30:41;21.77;;;3.53;;
74593;SDS011;63097;51.872;4.460;2023-04-25T00:33:07;27.67;;;3.00;;
74593;SDS011;63097;51.872;4.460;2023-04-25T00:35:33;21.65;;;2.88;;
74593;SDS011;63097;51.872;4.460;2023-04-25T00:37:59;27.73;;;3.47;;
74593;SDS011;63097;51.872;4.460;2023-04-25T00:40:25;30.20;;;4.43;;
74593;SDS011;63097;51.872;4.460;2023-04-25T00:42:53;24.60;;;5.43;;
74593;SDS011;63097;51.872;4.460;2023-04-25T00:45:19;28.35;;;6.93;;
74593;SDS011;63097;51.872;4.460;2023-04-25T00:47:45;28.98;;;6.78;;
74593;SDS011;63097;51.872;4.460;2023-04-25T00:50:11;25.60;;;9.18;;
74593;SDS011;63097;51.872;4.460;2023-04-25T00:52:37;28.90;;;8.25;;
74593;SDS011;63097;51.872;4.460;2023-04-25T00:55:05;24.35;;;7.80;;
74593;SDS011;63097;51.872;4.460;2023-04-25T00:57:30;25.33;;;4.40;;
74593;SDS011;63097;51.872;4.460;2023-04-25T00:59:55;16.60;;;3.67;;
74593;SDS011;63097;51.872;4.460;2023-04-25T01:02:21;17.52;;;3.10;;
74593;SDS011;63097;51.872;4.460;2023-04-25T01:04:47;27.95;;;4.00;;
74593;SDS011;63097;51.872;4.460;2023-04-25T01:07:13;11.05;;;2.20;;
74593;SDS011;63097;51.872;4.460;2023-04-25T01:09:39;22.42;;;2.75;;
74593;SDS011;63097;51.872;4.460;2023-04-25T01:12:04;15.52;;;2.30;;
74593;SDS011;63097;51.872;4.460;2023-04-25T01:14:30;16.45;;;2.60;;
74593;SDS011;63097;51.872;4.460;2023-04-25T01:16:55;16.42;;;2.40;;
74593;SDS011;63097;51.872;4.460;2023-04-25T01:19:21;18.40;;;2.85;;
74593;SDS011;63097;51.872;4.460;2023-04-25T01:21:46;11.95;;;2.40;;
74593;SDS011;63097;51.872;4.460;2023-04-25T01:24:12;14.70;;;2.42;;
74593;SDS011;63097;51.872;4.460;2023-04-25T01:26:38;15.43;;;2.50;;
74593;SDS011;63097;51.872;4.460;2023-04-25T01:29:04;12.55;;;1.83;;
74593;SDS011;63097;51.872;4.460;2023-04-25T01:31:29;17.58;;;2.65;;
74593;SDS011;63097;51.872;4.460;2023-04-25T01:33:57;18.02;;;2.97;;
74593;SDS011;63097;51.872;4.460;2023-04-25T01:36:22;22.23;;;3.22;;
74593;SDS011;63097;51.872;4.460;2023-04-25T01:38:47;12.45;;;2.10;;
74593;SDS011;63097;51.872;4.460;2023-04-25T01:41:13;10.48;;;2.63;;
74593;SDS011;63097;51.872;4.460;2023-04-25T01:43:39;14.70;;;2.38;;
74593;SDS011;63097;51.872;4.460;2023-04-25T01:46:05;16.10;;;1.52;;
74593;SDS011;63097;51.872;4.460;2023-04-25T01:48:30;23.13;;;2.17;;
74593;SDS011;63097;51.872;4.460;2023-04-25T01:50:56;16.15;;;2.50;;
74593;SDS011;63097;51.872;4.460;2023-04-25T01:53:21;17.02;;;3.33;;
74593;SDS011;63097;51.872;4.460;2023-04-25T01:55:47;17.85;;;2.83;;
74593;SDS011;63097;51.872;4.460;2023-04-25T01:58:12;12.88;;;2.63;;
74593;SDS011;63097;51.872;4.460;2023-04-25T02:00:37;9.07;;;1.70;;
74593;SDS011;63097;51.872;4.460;2023-04-25T02:03:03;17.45;;;2.40;;
74593;SDS011;63097;51.872;4.460;2023-04-25T02:05:33;9.82;;;1.88;;
74593;SDS011;63097;51.872;4.460;2023-04-25T02:07:59;19.20;;;2.67;;
74593;SDS011;63097;51.872;4.460;2023-04-25T02:10:24;13.68;;;2.10;;
74593;SDS011;63097;51.872;4.460;2023-04-25T02:12:50;11.27;;;2.17;;
74593;SDS011;63097;51.872;4.460;2023-04-25T02:15:15;16.13;;;2.72;;
74593;SDS011;63097;51.872;4.460;2023-04-25T02:17:40;14.10;;;2.30;;
74593;SDS011;63097;51.872;4.460;2023-04-25T02:20:06;31.20;;;2.92;;
74593;SDS011;63097;51.872;4.460;2023-04-25T02:22:31;14.77;;;2.15;;
74593;SDS011;63097;51.872;4.460;2023-04-25T02:24:57;15.88;;;2.58;;
74593;SDS011;63097;51.872;4.460;2023-04-25T02:27:22;9.27;;;1.85;;
74593;SDS011;63097;51.872;4.460;2023-04-25T02:29:47;12.73;;;1.92;;
74593;SDS011;63097;51.872;4.460;2023-04-25T02:32:12;12.90;;;1.80;;
74593;SDS011;63097;51.872;4.460;2023-04-25T02:34:38;15.57;;;1.77;;
74593;SDS011;63097;51.872;4.460;2023-04-25T02:37:03;14.25;;;1.67;;
74593;SDS011;63097;51.872;4.460;2023-04-25T02:39:28;16.38;;;1.85;;
74593;SDS011;63097;51.872;4.460;2023-04-25T02:41:54;15.65;;;1.65;;
74593;SDS011;63097;51.872;4.460;2023-04-25T02:44:19;9.35;;;1.73;;
74593;SDS011;63097;51.872;4.460;2023-04-25T02:46:44;8.30;;;1.50;;
74593;SDS011;63097;51.872;4.460;2023-04-25T02:49:10;5.90;;;1.42;;
74593;SDS011;63097;51.872;4.460;2023-04-25T02:51:35;12.18;;;2.15;;
74593;SDS011;63097;51.872;4.460;2023-04-25T02:54:00;17.02;;;2.03;;
74593;SDS011;63097;51.872;4.460;2023-04-25T02:56:25;21.33;;;2.28;;
74593;SDS011;63097;51.872;4.460;2023-04-25T02:58:52;10.95;;;2.28;;
74593;SDS011;63097;51.872;4.460;2023-04-25T03:01:17;13.48;;;1.58;;
74593;SDS011;63097;51.872;4.460;2023-04-25T03:03:42;13.45;;;1.58;;
74593;SDS011;63097;51.872;4.460;2023-04-25T03:06:08;19.20;;;2.25;;
74593;SDS011;63097;51.872;4.460;2023-04-25T03:08:33;10.77;;;1.98;;
74593;SDS011;63097;51.872;4.460;2023-04-25T03:10:58;11.52;;;1.88;;
74593;SDS011;63097;51.872;4.460;2023-04-25T03:13:24;16.25;;;1.88;;
74593;SDS011;63097;51.872;4.460;2023-04-25T03:15:49;9.43;;;1.60;;
74593;SDS011;63097;51.872;4.460;2023-04-25T03:18:15;15.68;;;1.95;;
74593;SDS011;63097;51.872;4.460;2023-04-25T03:20:40;13.57;;;1.70;;
74593;SDS011;63097;51.872;4.460;2023-04-25T03:23:05;11.73;;;1.90;;
74593;SDS011;63097;51.872;4.460;2023-04-25T03:25:31;15.35;;;1.80;;
74593;SDS011;63097;51.872;4.460;2023-04-25T03:27:56;13.00;;;1.67;;
74593;SDS011;63097;51.872;4.460;2023-04-25T03:30:21;10.32;;;1.60;;
74593;SDS011;63097;51.872;4.460;2023-04-25T03:32:46;15.30;;;1.85;;
74593;SDS011;63097;51.872;4.460;2023-04-25T03:35:12;12.05;;;2.28;;
74593;SDS011;63097;51.872;4.460;2023-04-25T03:37:37;14.68;;;2.25;;
74593;SDS011;63097;51.872;4.460;2023-04-25T03:40:02;15.15;;;2.58;;
74593;SDS011;63097;51.872;4.460;2023-04-25T03:42:28;12.77;;;1.60;;
74593;SDS011;63097;51.872;4.460;2023-04-25T03:44:53;14.02;;;2.53;;
74593;SDS011;63097;51.872;4.460;2023-04-25T03:47:19;15.07;;;2.55;;
74593;SDS011;63097;51.872;4.460;2023-04-25T03:49:44;14.38;;;2.00;;
74593;SDS011;63097;51.872;4.460;2023-04-25T03:52:09;18.00;;;2.55;;
74593;SDS011;63097;51.872;4.460;2023-04-25T03:54:35;13.50;;;2.25;;
74593;SDS011;63097;51.872;4.460;2023-04-25T03:57:00;20.05;;;3.00;;
74593;SDS011;63097;51.872;4.460;2023-04-25T03:59:25;15.30;;;2.38;;
74593;SDS011;63097;51.872;4.460;2023-04-25T04:01:50;14.18;;;2.45;;
74593;SDS011;63097;51.872;4.460;2023-04-25T04:04:16;13.23;;;2.25;;
74593;SDS011;63097;51.872;4.460;2023-04-25T04:06:41;18.45;;;2.42;;
74593;SDS011;63097;51.872;4.460;2023-04-25T04:09:06;17.70;;;2.13;;
74593;SDS011;63097;51.872;4.460;2023-04-25T04:11:32;10.07;;;1.88;;
74593;SDS011;63097;51.872;4.460;2023-04-25T04:13:57;13.07;;;1.77;;
74593;SDS011;63097;51.872;4.460;2023-04-25T04:16:22;7.70;;;0.90;;
74593;SDS011;63097;51.872;4.460;2023-04-25T04:18:48;7.47;;;1.20;;
74593;SDS011;63097;51.872;4.460;2023-04-25T04:21:13;5.18;;;1.20;;
74593;SDS011;63097;51.872;4.460;2023-04-25T04:23:38;6.95;;;1.50;;
74593;SDS011;63097;51.872;4.460;2023-04-25T04:26:04;7.57;;;1.13;;
74593;SDS011;63097;51.872;4.460;2023-04-25T04:28:29;7.15;;;1.40;;
74593;SDS011;63097;51.872;4.460;2023-04-25T04:30:54;4.45;;;1.30;;
74593;SDS011;63097;51.872;4.460;2023-04-25T04:33:19;18.10;;;1.90;;
74593;SDS011;63097;51.872;4.460;2023-04-25T04:35:45;16.48;;;1.88;;
74593;SDS011;63097;51.872;4.460;2023-04-25T04:38:11;6.20;;;1.20;;
74593;SDS011;63097;51.872;4.460;2023-04-25T04:40:36;14.30;;;1.70;;
74593;SDS011;63097;51.872;4.460;2023-04-25T04:43:01;10.95;;;1.40;;
74593;SDS011;63097;51.872;4.460;2023-04-25T04:45:26;11.20;;;1.20;;
74593;SDS011;63097;51.872;4.460;2023-04-25T04:47:52;8.00;;;1.52;;
74593;SDS011;63097;51.872;4.460;2023-04-25T04:50:17;8.13;;;1.77;;
74593;SDS011;63097;51.872;4.460;2023-04-25T04:52:42;8.98;;;1.65;;
74593;SDS011;63097;51.872;4.460;2023-04-25T04:55:08;5.55;;;1.90;;
74593;SDS011;63097;51.872;4.460;2023-04-25T04:57:34;6.78;;;1.80;;
74593;SDS011;63097;51.872;4.460;2023-04-25T04:59:59;14.60;;;2.25;;
74593;SDS011;63097;51.872;4.460;2023-04-25T05:02:25;6.90;;;1.60;;
74593;SDS011;63097;51.872;4.460;2023-04-25T05:04:50;6.63;;;2.05;;
74593;SDS011;63097;51.872;4.460;2023-04-25T05:07:17;10.07;;;1.70;;
74593;SDS011;63097;51.872;4.460;2023-04-25T05:09:43;14.05;;;1.80;;
74593;SDS011;63097;51.872;4.460;2023-04-25T05:12:08;8.85;;;1.40;;
74593;SDS011;63097;51.872;4.460;2023-04-25T05:14:33;7.57;;;1.63;;
74593;SDS011;63097;51.872;4.460;2023-04-25T05:16:59;13.55;;;1.83;;
74593;SDS011;63097;51.872;4.460;2023-04-25T05:19:24;9.30;;;1.60;;
74593;SDS011;63097;51.872;4.460;2023-04-25T05:21:49;14.60;;;2.08;;
74593;SDS011;63097;51.872;4.460;2023-04-25T05:24:15;7.35;;;1.90;;
74593;SDS011;63097;51.872;4.460;2023-04-25T05:26:40;11.98;;;1.58;;
74593;SDS011;63097;51.872;4.460;2023-04-25T05:29:05;17.42;;;1.80;;
74593;SDS011;63097;51.872;4.460;2023-04-25T05:31:31;18.30;;;1.90;;
74593;SDS011;63097;51.872;4.460;2023-04-25T05:33:57;19.85;;;3.47;;
74593;SDS011;63097;51.872;4.460;2023-04-25T05:36:22;11.75;;;2.03;;
74593;SDS011;63097;51.872;4.460;2023-04-25T05:38:48;6.03;;;1.30;;
74593;SDS011;63097;51.872;4.460;2023-04-25T05:41:13;8.63;;;1.30;;
74593;SDS011;63097;51.872;4.460;2023-04-25T05:43:38;5.13;;;1.27;;
74593;SDS011;63097;51.872;4.460;2023-04-25T05:46:04;12.30;;;1.42;;
74593;SDS011;63097;51.872;4.460;2023-04-25T05:48:29;16.38;;;1.88;;
74593;SDS011;63097;51.872;4.460;2023-04-25T05:50:54;10.45;;;1.20;;
74593;SDS011;63097;51.872;4.460;2023-04-25T05:53:20;9.82;;;1.65;;
74593;SDS011;63097;51.872;4.460;2023-04-25T05:55:46;14.45;;;1.40;;
74593;SDS011;63097;51.872;4.460;2023-04-25T05:58:11;9.73;;;1.48;;
74593;SDS011;63097;51.872;4.460;2023-04-25T06:00:36;13.23;;;1.33;;
74593;SDS011;63097;51.872;4.460;2023-04-25T06:03:02;12.20;;;1.42;;
74593;SDS011;63097;51.872;4.460;2023-04-25T06:05:27;6.93;;;0.90;;
74593;SDS011;63097;51.872;4.460;2023-04-25T06:07:52;4.25;;;0.75;;
74593;SDS011;63097;51.872;4.460;2023-04-25T06:10:18;4.72;;;1.20;;
74593;SDS011;63097;51.872;4.460;2023-04-25T06:12:43;12.88;;;1.75;;
74593;SDS011;63097;51.872;4.460;2023-04-25T06:15:09;12.80;;;1.83;;
74593;SDS011;63097;51.872;4.460;2023-04-25T06:17:34;7.90;;;1.30;;
74593;SDS011;63097;51.872;4.460;2023-04-25T06:19:59;9.73;;;1.17;;
74593;SDS011;63097;51.872;4.460;2023-04-25T06:22:25;8.63;;;1.17;;
74593;SDS011;63097;51.872;4.460;2023-04-25T06:24:50;14.63;;;1.40;;
74593;SDS011;63097;51.872;4.460;2023-04-25T06:27:15;7.88;;;1.10;;
74593;SDS011;63097;51.872;4.460;2023-04-25T06:29:41;12.07;;;1.13;;
74593;SDS011;63097;51.872;4.460;2023-04-25T06:32:06;8.23;;;1.10;;
74593;SDS011;63097;51.872;4.460;2023-04-25T06:34:31;11.98;;;1.60;;
74593;SDS011;63097;51.872;4.460;2023-04-25T06:36:56;8.85;;;1.95;;
74593;SDS011;63097;51.872;4.460;2023-04-25T06:39:22;11.73;;;0.93;;
74593;SDS011;63097;51.872;4.460;2023-04-25T06:41:47;6.03;;;1.05;;
74593;SDS011;63097;51.872;4.460;2023-04-25T06:44:12;4.35;;;0.90;;
74593;SDS011;63097;51.872;4.460;2023-04-25T06:46:38;5.57;;;1.55;;
74593;SDS011;63097;51.872;4.460;2023-04-25T06:49:03;5.85;;;1.48;;
74593;SDS011;63097;51.872;4.460;2023-04-25T06:51:28;7.60;;;1.25;;
74593;SDS011;63097;51.872;4.460;2023-04-25T06:53:53;7.10;;;1.30;;
74593;SDS011;63097;51.872;4.460;2023-04-25T06:56:19;5.70;;;1.02;;
74593;SDS011;63097;51.872;4.460;2023-04-25T06:58:44;4.97;;;1.10;;
74593;SDS011;63097;51.872;4.460;2023-04-25T07:01:09;5.85;;;0.90;;
74593;SDS011;63097;51.872;4.460;2023-04-25T07:03:35;5.32;;;1.08;;
74593;SDS011;63097;51.872;4.460;2023-04-25T07:06:00;4.35;;;0.88;;
74593;SDS011;63097;51.872;4.460;2023-04-25T07:08:25;7.15;;;1.15;;
74593;SDS011;63097;51.872;4.460;2023-04-25T07:10:51;2.33;;;0.95;;
74593;SDS011;63097;51.872;4.460;2023-04-25T07:13:16;8.32;;;1.83;;
74593;SDS011;63097;51.872;4.460;2023-04-25T07:15:41;7.57;;;1.13;;
74593;SDS011;63097;51.872;4.460;2023-04-25T07:18:06;5.68;;;1.33;;
74593;SDS011;63097;51.872;4.460;2023-04-25T07:20:32;3.55;;;1.13;;
74593;SDS011;63097;51.872;4.460;2023-04-25T07:22:57;7.07;;;1.10;;
74593;SDS011;63097;51.872;4.460;2023-04-25T07:25:22;7.20;;;0.98;;
74593;SDS011;63097;51.872;4.460;2023-04-25T07:27:48;9.95;;;1.17;;
74593;SDS011;63097;51.872;4.460;2023-04-25T07:30:13;6.22;;;1.10;;
74593;SDS011;63097;51.872;4.460;2023-04-25T07:32:38;4.97;;;1.02;;
74593;SDS011;63097;51.872;4.460;2023-04-25T07:35:04;9.68;;;1.25;;
74593;SDS011;63097;51.872;4.460;2023-04-25T07:37:30;6.65;;;0.90;;
74593;SDS011;63097;51.872;4.460;2023-04-25T07:39:55;8.95;;;1.40;;
74593;SDS011;63097;51.872;4.460;2023-04-25T07:42:20;5.57;;;1.25;;
74593;SDS011;63097;51.872;4.460;2023-04-25T07:44:46;9.40;;;1.20;;
74593;SDS011;63097;51.872;4.460;2023-04-25T07:47:11;9.23;;;1.23;;
74593;SDS011;63097;51.872;4.460;2023-04-25T07:49:36;4.32;;;0.98;;
74593;SDS011;63097;51.872;4.460;2023-04-25T07:52:03;19.88;;;1.30;;
74593;SDS011;63097;51.872;4.460;2023-04-25T07:54:29;7.95;;;0.80;;
74593;SDS011;63097;51.872;4.460;2023-04-25T07:56:54;3.15;;;0.80;;
74593;SDS011;63097;51.872;4.460;2023-04-25T07:59:20;5.78;;;1.20;;
74593;SDS011;63097;51.872;4.460;2023-04-25T08:01:45;7.28;;;1.02;;
74593;SDS011;63097;51.872;4.460;2023-04-25T08:04:11;9.38;;;1.17;;
74593;SDS011;63097;51.872;4.460;2023-04-25T08:06:36;5.90;;;0.90;;
74593;SDS011;63097;51.872;4.460;2023-04-25T08:09:01;8.32;;;0.65;;
74593;SDS011;63097;51.872;4.460;2023-04-25T08:11:27;4.20;;;1.20;;
74593;SDS011;63097;51.872;4.460;2023-04-25T08:13:52;2.03;;;0.43;;
74593;SDS011;63097;51.872;4.460;2023-04-25T08:16:17;8.88;;;0.98;;
74593;SDS011;63097;51.872;4.460;2023-04-25T08:18:43;4.70;;;0.68;;
74593;SDS011;63097;51.872;4.460;2023-04-25T08:21:08;2.05;;;0.52;;
74593;SDS011;63097;51.872;4.460;2023-04-25T08:23:33;9.30;;;1.20;;
74593;SDS011;63097;51.872;4.460;2023-04-25T08:25:59;8.30;;;0.98;;
74593;SDS011;63097;51.872;4.460;2023-04-25T08:28:24;8.13;;;0.80;;
74593;SDS011;63097;51.872;4.460;2023-04-25T08:30:49;6.45;;;1.10;;
74593;SDS011;63097;51.872;4.460;2023-04-25T08:33:15;8.93;;;1.02;;
74593;SDS011;63097;51.872;4.460;2023-04-25T08:35:40;7.70;;;0.73;;
74593;SDS011;63097;51.872;4.460;2023-04-25T08:38:05;5.05;;;0.70;;
74593;SDS011;63097;51.872;4.460;2023-04-25T08:40:31;4.05;;;0.40;;
74593;SDS011;63097;51.872;4.460;2023-04-25T08:43:02;5.93;;;0.55;;
74593;SDS011;63097;51.872;4.460;2023-04-25T08:45:29;6.70;;;0.93;;
74593;SDS011;63097;51.872;4.460;2023-04-25T08:47:56;8.13;;;0.80;;
74593;SDS011;63097;51.872;4.460;2023-04-25T08:50:22;15.85;;;1.50;;
74593;SDS011;63097;51.872;4.460;2023-04-25T08:52:48;6.95;;;0.60;;
74593;SDS011;63097;51.872;4.460;2023-04-25T08:55:15;10.77;;;0.88;;
74593;SDS011;63097;51.872;4.460;2023-04-25T08:57:40;5.93;;;0.85;;
74593;SDS011;63097;51.872;4.460;2023-04-25T09:00:07;5.13;;;0.57;;
74593;SDS011;63097;51.872;4.460;2023-04-25T09:02:33;3.33;;;0.63;;
74593;SDS011;63097;51.872;4.460;2023-04-25T09:04:58;2.08;;;0.40;;
74593;SDS011;63097;51.872;4.460;2023-04-25T09:07:24;10.10;;;0.93;;
74593;SDS011;63097;51.872;4.460;2023-04-25T09:09:49;9.38;;;0.60;;
74593;SDS011;63097;51.872;4.460;2023-04-25T09:12:15;3.55;;;0.50;;
74593;SDS011;63097;51.872;4.460;2023-04-25T09:14:40;8.70;;;1.08;;
74593;SDS011;63097;51.872;4.460;2023-04-25T09:17:06;8.93;;;0.75;;
74593;SDS011;63097;51.872;4.460;2023-04-25T09:19:32;7.13;;;0.60;;
74593;SDS011;63097;51.872;4.460;2023-04-25T09:21:59;7.15;;;1.67;;
74593;SDS011;63097;51.872;4.460;2023-04-25T09:24:45;14.77;;;1.10;;
74593;SDS011;63097;51.872;4.460;2023-04-25T09:27:11;10.93;;;2.35;;
74593;SDS011;63097;51.872;4.460;2023-04-25T09:29:38;10.68;;;0.90;;
74593;SDS011;63097;51.872;4.460;2023-04-25T09:32:11;4.72;;;0.77;;
74593;SDS011;63097;51.872;4.460;2023-04-25T09:34:44;3.10;;;0.50;;
74593;SDS011;63097;51.872;4.460;2023-04-25T09:37:11;3.60;;;0.77;;
74593;SDS011;63097;51.872;4.460;2023-04-25T09:39:37;2.70;;;0.70;;
74593;SDS011;63097;51.872;4.460;2023-04-25T09:42:04;3.80;;;0.65;;
74593;SDS011;63097;51.872;4.460;2023-04-25T09:44:30;4.53;;;0.50;;
74593;SDS011;63097;51.872;4.460;2023-04-25T09:46:55;1.40;;;0.30;;
74593;SDS011;63097;51.872;4.460;2023-04-25T09:49:20;7.40;;;0.75;;
74593;SDS011;63097;51.872;4.460;2023-04-25T09:51:58;6.90;;;0.60;;
74593;SDS011;63097;51.872;4.460;2023-04-25T09:54:24;1.92;;;0.32;;
74593;SDS011;63097;51.872;4.460;2023-04-25T09:56:53;5.20;;;0.93;;
74593;SDS011;63097;51.872;4.460;2023-04-25T09:59:22;6.35;;;0.40;;
74593;SDS011;63097;51.872;4.460;2023-04-25T10:01:47;4.45;;;0.60;;
74593;SDS011;63097;51.872;4.460;2023-04-25T10:04:14;7.28;;;0.60;;
74593;SDS011;63097;51.872;4.460;2023-04-25T10:06:44;3.22;;;0.50;;
74593;SDS011;63097;51.872;4.460;2023-04-25T10:09:11;10.82;;;0.80;;
74593;SDS011;63097;51.872;4.460;2023-04-25T10:11:38;3.80;;;0.60;;
74593;SDS011;63097;51.872;4.460;2023-04-25T10:14:04;7.20;;;1.05;;
74593;SDS011;63097;51.872;4.460;2023-04-25T10:16:31;5.07;;;0.25;;
74593;SDS011;63097;51.872;4.460;2023-04-25T10:18:56;7.60;;;0.38;;
74593;SDS011;63097;51.872;4.460;2023-04-25T10:21:22;8.05;;;0.57;;
74593;SDS011;63097;51.872;4.460;2023-04-25T10:23:49;3.47;;;0.55;;
74593;SDS011;63097;51.872;4.460;2023-04-25T10:26:14;1.48;;;0.40;;
74593;SDS011;63097;51.872;4.460;2023-04-25T10:29:14;8.35;;;0.82;;
74593;SDS011;63097;51.872;4.460;2023-04-25T10:31:32;2.70;;;0.40;;
74593;SDS011;63097;51.872;4.460;2023-04-25T10:33:58;6.03;;;0.40;;
74593;SDS011;63097;51.872;4.460;2023-04-25T10:36:24;5.25;;;0.60;;
74593;SDS011;63097;51.872;4.460;2023-04-25T10:38:50;5.10;;;0.57;;
74593;SDS011;63097;51.872;4.460;2023-04-25T10:41:19;8.60;;;1.00;;
74593;SDS011;63097;51.872;4.460;2023-04-25T10:43:46;2.17;;;0.35;;
74593;SDS011;63097;51.872;4.460;2023-04-25T10:48:57;3.20;;;0.52;;
74593;SDS011;63097;51.872;4.460;2023-04-25T10:51:24;6.10;;;0.85;;
74593;SDS011;63097;51.872;4.460;2023-04-25T10:56:31;4.70;;;0.75;;
74593;SDS011;63097;51.872;4.460;2023-04-25T11:01:40;4.20;;;0.55;;
74593;SDS011;63097;51.872;4.460;2023-04-25T11:04:18;11.35;;;1.05;;
74593;SDS011;63097;51.872;4.460;2023-04-25T11:07:00;2.30;;;0.47;;
74593;SDS011;63097;51.872;4.460;2023-04-25T11:09:45;5.00;;;0.57;;
74593;SDS011;63097;51.872;4.460;2023-04-25T11:12:11;2.70;;;0.50;;
74593;SDS011;63097;51.872;4.460;2023-04-25T11:14:36;2.88;;;0.45;;
74593;SDS011;63097;51.872;4.460;2023-04-25T11:17:02;5.55;;;0.70;;
74593;SDS011;63097;51.872;4.460;2023-04-25T11:19:28;6.75;;;0.73;;
74593;SDS011;63097;51.872;4.460;2023-04-25T11:21:57;4.50;;;0.50;;
74593;SDS011;63097;51.872;4.460;2023-04-25T11:24:30;2.22;;;0.70;;
74593;SDS011;63097;51.872;4.460;2023-04-25T11:26:57;5.55;;;0.60;;
74593;SDS011;63097;51.872;4.460;2023-04-25T11:29:26;2.28;;;0.50;;
74593;SDS011;63097;51.872;4.460;2023-04-25T11:31:52;4.80;;;0.75;;
74593;SDS011;63097;51.872;4.460;2023-04-25T11:34:18;6.53;;;0.88;;
74593;SDS011;63097;51.872;4.460;2023-04-25T11:36:44;7.50;;;0.80;;
74593;SDS011;63097;51.872;4.460;2023-04-25T11:39:10;5.18;;;0.80;;
74593;SDS011;63097;51.872;4.460;2023-04-25T11:41:37;6.25;;;0.80;;
74593;SDS011;63097;51.872;4.460;2023-04-25T11:44:02;8.90;;;1.10;;
74593;SDS011;63097;51.872;4.460;2023-04-25T11:46:28;4.95;;;0.70;;
74593;SDS011;63097;51.872;4.460;2023-04-25T11:48:54;2.88;;;0.60;;
74593;SDS011;63097;51.872;4.460;2023-04-25T11:51:20;7.78;;;0.65;;
74593;SDS011;63097;51.872;4.460;2023-04-25T11:53:46;6.93;;;0.68;;
74593;SDS011;63097;51.872;4.460;2023-04-25T11:56:11;9.73;;;0.82;;
74593;SDS011;63097;51.872;4.460;2023-04-25T11:58:57;6.93;;;0.98;;
74593;SDS011;63097;51.872;4.460;2023-04-25T12:01:30;4.28;;;0.70;;
74593;SDS011;63097;51.872;4.460;2023-04-25T12:03:56;4.68;;;0.40;;
74593;SDS011;63097;51.872;4.460;2023-04-25T12:06:38;3.45;;;0.60;;
74593;SDS011;63097;51.872;4.460;2023-04-25T12:09:06;7.03;;;0.90;;
74593;SDS011;63097;51.872;4.460;2023-04-25T12:11:35;7.18;;;0.90;;
74593;SDS011;63097;51.872;4.460;2023-04-25T12:14:09;8.52;;;1.00;;
74593;SDS011;63097;51.872;4.460;2023-04-25T12:16:44;8.38;;;0.80;;
74593;SDS011;63097;51.872;4.460;2023-04-25T12:19:13;6.00;;;0.70;;
74593;SDS011;63097;51.872;4.460;2023-04-25T12:21:39;5.63;;;0.82;;
74593;SDS011;63097;51.872;4.460;2023-04-25T12:24:11;9.13;;;1.40;;
74593;SDS011;63097;51.872;4.460;2023-04-25T12:26:47;5.40;;;0.68;;
74593;SDS011;63097;51.872;4.460;2023-04-25T12:29:23;6.65;;;0.90;;
74593;SDS011;63097;51.872;4.460;2023-04-25T12:31:50;6.72;;;0.88;;
74593;SDS011;63097;51.872;4.460;2023-04-25T12:34:17;4.07;;;0.80;;
74593;SDS011;63097;51.872;4.460;2023-04-25T12:36:43;8.73;;;1.42;;
74593;SDS011;63097;51.872;4.460;2023-04-25T12:39:08;10.18;;;0.80;;
74593;SDS011;63097;51.872;4.460;2023-04-25T12:41:38;7.75;;;0.70;;
74593;SDS011;63097;51.872;4.460;2023-04-25T12:44:04;2.63;;;0.80;;
74593;SDS011;63097;51.872;4.460;2023-04-25T12:46:29;3.15;;;0.77;;
74593;SDS011;63097;51.872;4.460;2023-04-25T12:48:54;1.42;;;0.70;;
74593;SDS011;63097;51.872;4.460;2023-04-25T12:51:20;4.88;;;0.90;;
74593;SDS011;63097;51.872;4.460;2023-04-25T12:53:45;5.25;;;0.57;;
74593;SDS011;63097;51.872;4.460;2023-04-25T12:56:10;3.65;;;0.57;;
74593;SDS011;63097;51.872;4.460;2023-04-25T12:58:36;7.63;;;0.63;;
74593;SDS011;63097;51.872;4.460;2023-04-25T13:01:01;3.80;;;0.63;;
74593;SDS011;63097;51.872;4.460;2023-04-25T13:03:26;5.38;;;1.10;;
74593;SDS011;63097;51.872;4.460;2023-04-25T13:05:52;7.72;;;0.85;;
74593;SDS011;63097;51.872;4.460;2023-04-25T13:08:17;2.35;;;0.60;;
74593;SDS011;63097;51.872;4.460;2023-04-25T13:10:42;10.07;;;0.80;;
74593;SDS011;63097;51.872;4.460;2023-04-25T13:13:08;3.92;;;0.70;;
74593;SDS011;63097;51.872;4.460;2023-04-25T13:15:33;6.53;;;0.80;;
74593;SDS011;63097;51.872;4.460;2023-04-25T13:17:59;4.05;;;0.75;;
74593;SDS011;63097;51.872;4.460;2023-04-25T13:20:24;5.18;;;0.60;;
74593;SDS011;63097;51.872;4.460;2023-04-25T13:22:49;4.25;;;0.60;;
74593;SDS011;63097;51.872;4.460;2023-04-25T13:25:14;3.35;;;0.70;;
74593;SDS011;63097;51.872;4.460;2023-04-25T13:27:40;5.35;;;0.75;;
74593;SDS011;63097;51.872;4.460;2023-04-25T13:30:05;9.48;;;0.75;;
74593;SDS011;63097;51.872;4.460;2023-04-25T13:32:31;1.83;;;0.40;;
74593;SDS011;63097;51.872;4.460;2023-04-25T13:34:56;4.93;;;0.85;;
74593;SDS011;63097;51.872;4.460;2023-04-25T13:37:22;6.60;;;0.77;;
74593;SDS011;63097;51.872;4.460;2023-04-25T13:39:47;4.13;;;0.75;;
74593;SDS011;63097;51.872;4.460;2023-04-25T13:42:12;3.35;;;0.52;;
74593;SDS011;63097;51.872;4.460;2023-04-25T13:44:37;3.80;;;0.57;;
74593;SDS011;63097;51.872;4.460;2023-04-25T13:47:03;3.75;;;0.50;;
74593;SDS011;63097;51.872;4.460;2023-04-25T13:49:28;7.63;;;0.80;;
74593;SDS011;63097;51.872;4.460;2023-04-25T13:51:53;2.88;;;0.52;;
74593;SDS011;63097;51.872;4.460;2023-04-25T13:54:19;4.13;;;0.70;;
74593;SDS011;63097;51.872;4.460;2023-04-25T13:56:44;3.22;;;0.60;;
74593;SDS011;63097;51.872;4.460;2023-04-25T13:59:09;3.25;;;0.70;;
74593;SDS011;63097;51.872;4.460;2023-04-25T14:01:35;8.13;;;0.73;;
74593;SDS011;63097;51.872;4.460;2023-04-25T14:04:00;7.53;;;1.00;;
74593;SDS011;63097;51.872;4.460;2023-04-25T14:06:25;8.32;;;1.00;;
74593;SDS011;63097;51.872;4.460;2023-04-25T14:08:51;8.50;;;0.90;;
74593;SDS011;63097;51.872;4.460;2023-04-25T14:11:17;6.35;;;0.75;;
74593;SDS011;63097;51.872;4.460;2023-04-25T14:13:42;4.20;;;0.82;;
74593;SDS011;63097;51.872;4.460;2023-04-25T14:16:07;3.35;;;0.63;;
74593;SDS011;63097;51.872;4.460;2023-04-25T14:18:33;2.95;;;0.60;;
74593;SDS011;63097;51.872;4.460;2023-04-25T14:20:58;7.93;;;0.77;;
74593;SDS011;63097;51.872;4.460;2023-04-25T14:23:23;5.05;;;0.98;;
74593;SDS011;63097;51.872;4.460;2023-04-25T14:25:49;4.88;;;0.45;;
74593;SDS011;63097;51.872;4.460;2023-04-25T14:28:14;7.10;;;0.73;;
74593;SDS011;63097;51.872;4.460;2023-04-25T14:30:39;3.10;;;0.73;;
74593;SDS011;63097;51.872;4.460;2023-04-25T14:33:04;6.38;;;0.70;;
74593;SDS011;63097;51.872;4.460;2023-04-25T14:35:30;3.40;;;0.60;;
74593;SDS011;63097;51.872;4.460;2023-04-25T14:37:55;5.50;;;0.80;;
74593;SDS011;63097;51.872;4.460;2023-04-25T14:40:20;5.85;;;0.60;;
74593;SDS011;63097;51.872;4.460;2023-04-25T14:42:46;6.00;;;0.80;;
74593;SDS011;63097;51.872;4.460;2023-04-25T14:45:11;6.05;;;0.75;;